Hartland Four Corners, Vermont
Current Conditions -  °F | °C
As of 12:34 PM on Thursday 23 Oct 2014 (Local Time) from KLEB Reporting Station
Moderate Rain Moderate Rain  
Wind Chill: 45°   Ceiling: 200
Heat Index: 48°   Visibility: 1.7mi
Dew Point: 45°   Wind: 6mph
Humidity: 89%   Direction: 340°NNW
Pressure: 29.83"   Gusts: NA
Location:  43.55°N, 72.42°W
Report Text: KLEB 231634Z 34005KT 1 3/4SM RA BR BKN002 OVC010 09/07 A2983 RMK AO2 P0006 T00890072
Loading
Personal Weather Stations






























Interactive Weather Map
Tropical Storm Tracking
New forecast layout! Learn more

10-Day Weather Forecast

Advertisements
Track Severe Weather on mobile